sensor_id;sensor_type;location;lat;lon;timestamp;pressure;altitude;pressure_sealevel;temperature;humidity
11672;BME280;5892;43.412;24.612;2023-06-10T00:00:40;99470.56;;;18.13;95.01
11672;BME280;5892;43.412;24.612;2023-06-10T00:03:07;99452.66;;;18.07;95.28
11672;BME280;5892;43.412;24.612;2023-06-10T00:05:34;99477.31;;;18.16;95.48
11672;BME280;5892;43.412;24.612;2023-06-10T00:08:14;99477.75;;;18.21;95.31
11672;BME280;5892;43.412;24.612;2023-06-10T00:10:45;99475.41;;;18.24;94.91
11672;BME280;5892;43.412;24.612;2023-06-10T00:13:12;99484.41;;;18.13;94.46
11672;BME280;5892;43.412;24.612;2023-06-10T00:15:39;99470.19;;;18.15;94.58
11672;BME280;5892;43.412;24.612;2023-06-10T00:18:06;99471.31;;;18.10;95.14
11672;BME280;5892;43.412;24.612;2023-06-10T00:20:35;99472.41;;;18.02;95.07
11672;BME280;5892;43.412;24.612;2023-06-10T00:23:04;99477.63;;;18.07;94.94
11672;BME280;5892;43.412;24.612;2023-06-10T00:25:33;99477.25;;;18.12;94.65
11672;BME280;5892;43.412;24.612;2023-06-10T00:28:00;99478.09;;;18.16;94.28
11672;BME280;5892;43.412;24.612;2023-06-10T00:30:27;99476.09;;;18.13;94.02
11672;BME280;5892;43.412;24.612;2023-06-10T00:32:54;99483.63;;;18.16;93.70
11672;BME280;5892;43.412;24.612;2023-06-10T00:35:21;99477.22;;;18.05;93.91
11672;BME280;5892;43.412;24.612;2023-06-10T00:37:48;99480.34;;;18.00;94.48
11672;BME280;5892;43.412;24.612;2023-06-10T00:40:16;99472.38;;;17.99;94.51
11672;BME280;5892;43.412;24.612;2023-06-10T00:42:43;99477.13;;;17.98;94.71
11672;BME280;5892;43.412;24.612;2023-06-10T00:45:10;99472.41;;;18.02;94.57
11672;BME280;5892;43.412;24.612;2023-06-10T00:47:37;99468.34;;;17.93;94.84
11672;BME280;5892;43.412;24.612;2023-06-10T00:50:07;99464.69;;;17.85;94.97
11672;BME280;5892;43.412;24.612;2023-06-10T00:52:35;99482.66;;;17.95;94.96
11672;BME280;5892;43.412;24.612;2023-06-10T00:55:02;99461.09;;;17.81;94.58
11672;BME280;5892;43.412;24.612;2023-06-10T00:57:30;99481.25;;;17.78;95.74
11672;BME280;5892;43.412;24.612;2023-06-10T00:59:58;99482.34;;;17.70;96.15
11672;BME280;5892;43.412;24.612;2023-06-10T01:02:25;99480.31;;;17.63;96.79
11672;BME280;5892;43.412;24.612;2023-06-10T01:04:51;99492.59;;;17.66;96.44
11672;BME280;5892;43.412;24.612;2023-06-10T01:07:25;99481.47;;;17.62;96.70
11672;BME280;5892;43.412;24.612;2023-06-10T01:10:00;99470.31;;;17.59;97.42
11672;BME280;5892;43.412;24.612;2023-06-10T01:12:33;99469.47;;;17.55;97.24
11672;BME280;5892;43.412;24.612;2023-06-10T01:15:01;99468.28;;;17.52;96.92
11672;BME280;5892;43.412;24.612;2023-06-10T01:17:29;99477.41;;;17.56;96.40
11672;BME280;5892;43.412;24.612;2023-06-10T01:19:57;99465.75;;;17.44;96.39
11672;BME280;5892;43.412;24.612;2023-06-10T01:22:27;99476.59;;;17.56;96.31
11672;BME280;5892;43.412;24.612;2023-06-10T01:24:57;99485.41;;;17.61;96.08
11672;BME280;5892;43.412;24.612;2023-06-10T01:27:28;99480.88;;;17.50;96.98
11672;BME280;5892;43.412;24.612;2023-06-10T01:29:59;99490.47;;;17.56;97.28
11672;BME280;5892;43.412;24.612;2023-06-10T01:32:34;99483.31;;;17.55;97.52
11672;BME280;5892;43.412;24.612;2023-06-10T01:35:05;99481.03;;;17.60;97.66
11672;BME280;5892;43.412;24.612;2023-06-10T01:37:37;99482.53;;;17.54;98.19
11672;BME280;5892;43.412;24.612;2023-06-10T01:40:06;99475.31;;;17.46;98.29
11672;BME280;5892;43.412;24.612;2023-06-10T01:42:33;99482.22;;;17.59;97.85
11672;BME280;5892;43.412;24.612;2023-06-10T01:45:00;99477.78;;;17.55;98.62
11672;BME280;5892;43.412;24.612;2023-06-10T01:47:28;99482.91;;;17.53;99.02
11672;BME280;5892;43.412;24.612;2023-06-10T01:49:55;99478.19;;;17.53;99.27
11672;BME280;5892;43.412;24.612;2023-06-10T01:52:21;99482.06;;;17.49;99.67
11672;BME280;5892;43.412;24.612;2023-06-10T01:54:50;99470.63;;;17.54;99.51
11672;BME280;5892;43.412;24.612;2023-06-10T01:57:17;99492.88;;;17.57;100.00
11672;BME280;5892;43.412;24.612;2023-06-10T01:59:44;99493.34;;;17.63;100.00
11672;BME280;5892;43.412;24.612;2023-06-10T02:02:11;99489.47;;;17.71;99.97
11672;BME280;5892;43.412;24.612;2023-06-10T02:04:38;99493.09;;;17.75;99.06
11672;BME280;5892;43.412;24.612;2023-06-10T02:07:05;99495.03;;;17.71;99.35
11672;BME280;5892;43.412;24.612;2023-06-10T02:09:32;99495.03;;;17.71;99.25
11672;BME280;5892;43.412;24.612;2023-06-10T02:12:02;99495.41;;;17.69;99.50
11672;BME280;5892;43.412;24.612;2023-06-10T02:14:31;99492.59;;;17.66;99.75
11672;BME280;5892;43.412;24.612;2023-06-10T02:16:59;99502.53;;;17.70;100.00
11672;BME280;5892;43.412;24.612;2023-06-10T02:19:26;99498.94;;;17.66;100.00
11672;BME280;5892;43.412;24.612;2023-06-10T02:21:53;99507.75;;;17.75;100.00
11672;BME280;5892;43.412;24.612;2023-06-10T02:24:20;99496.63;;;17.72;100.00
11672;BME280;5892;43.412;24.612;2023-06-10T02:26:47;99497.09;;;17.77;100.00
11672;BME280;5892;43.412;24.612;2023-06-10T02:29:15;99501.41;;;17.75;100.00
11672;BME280;5892;43.412;24.612;2023-06-10T02:31:42;99501.84;;;17.77;100.00
11672;BME280;5892;43.412;24.612;2023-06-10T02:34:09;99500.31;;;17.83;100.00
11672;BME280;5892;43.412;24.612;2023-06-10T02:36:36;99498.34;;;17.84;100.00
11672;BME280;5892;43.412;24.612;2023-06-10T02:39:03;99487.31;;;17.87;100.00
11672;BME280;5892;43.412;24.612;2023-06-10T02:41:30;99497.56;;;17.83;100.00
11672;BME280;5892;43.412;24.612;2023-06-10T02:43:57;99480.94;;;17.83;100.00
11672;BME280;5892;43.412;24.612;2023-06-10T02:46:25;99483.41;;;17.95;100.00
11672;BME280;5892;43.412;24.612;2023-06-10T02:48:54;99483.75;;;17.90;100.00
11672;BME280;5892;43.412;24.612;2023-06-10T02:51:20;99486.97;;;17.92;100.00
11672;BME280;5892;43.412;24.612;2023-06-10T02:53:47;99491.84;;;18.06;100.00
11672;BME280;5892;43.412;24.612;2023-06-10T02:56:16;99492.25;;;18.04;100.00
11672;BME280;5892;43.412;24.612;2023-06-10T02:58:43;99502.22;;;18.12;100.00
11672;BME280;5892;43.412;24.612;2023-06-10T03:01:09;99499.06;;;18.14;100.00
11672;BME280;5892;43.412;24.612;2023-06-10T03:03:38;99507.84;;;18.19;100.00
11672;BME280;5892;43.412;24.612;2023-06-10T03:06:09;99494.34;;;18.18;100.00
11672;BME280;5892;43.412;24.612;2023-06-10T03:08:37;99501.16;;;18.24;100.00
11672;BME280;5892;43.412;24.612;2023-06-10T03:11:04;99499.28;;;18.35;100.00
11672;BME280;5892;43.412;24.612;2023-06-10T03:13:32;99507.59;;;18.32;100.00
11672;BME280;5892;43.412;24.612;2023-06-10T03:15:59;99507.22;;;18.37;100.00
11672;BME280;5892;43.412;24.612;2023-06-10T03:18:27;99512.34;;;18.35;100.00
11672;BME280;5892;43.412;24.612;2023-06-10T03:20:55;99504.47;;;18.37;100.00
11672;BME280;5892;43.412;24.612;2023-06-10T03:23:23;99510.41;;;18.39;100.00
11672;BME280;5892;43.412;24.612;2023-06-10T03:25:50;99492.50;;;18.33;100.00
11672;BME280;5892;43.412;24.612;2023-06-10T03:28:16;99503.78;;;18.50;100.00
11672;BME280;5892;43.412;24.612;2023-06-10T03:30:43;99504.25;;;18.56;100.00
11672;BME280;5892;43.412;24.612;2023-06-10T03:33:10;99507.88;;;18.63;100.00
11672;BME280;5892;43.412;24.612;2023-06-10T03:35:37;99513.13;;;18.72;100.00
11672;BME280;5892;43.412;24.612;2023-06-10T03:38:05;99514.75;;;18.80;100.00
11672;BME280;5892;43.412;24.612;2023-06-10T03:40:32;99511.97;;;18.80;100.00
11672;BME280;5892;43.412;24.612;2023-06-10T03:43:00;99496.03;;;18.70;100.00
11672;BME280;5892;43.412;24.612;2023-06-10T03:45:27;99516.88;;;18.94;100.00
11672;BME280;5892;43.412;24.612;2023-06-10T03:47:54;99520.03;;;18.96;100.00
11672;BME280;5892;43.412;24.612;2023-06-10T03:50:23;99520.88;;;19.03;100.00
11672;BME280;5892;43.412;24.612;2023-06-10T03:52:50;99522.88;;;19.07;100.00
11672;BME280;5892;43.412;24.612;2023-06-10T03:55:18;99516.16;;;19.08;100.00
11672;BME280;5892;43.412;24.612;2023-06-10T03:57:47;99519.31;;;19.06;100.00
11672;BME280;5892;43.412;24.612;2023-06-10T04:00:15;99505.78;;;19.01;100.00
11672;BME280;5892;43.412;24.612;2023-06-10T04:02:42;99529.72;;;19.20;100.00
11672;BME280;5892;43.412;24.612;2023-06-10T04:05:14;99526.53;;;19.21;100.00
11672;BME280;5892;43.412;24.612;2023-06-10T04:07:42;99536.97;;;19.35;100.00
11672;BME280;5892;43.412;24.612;2023-06-10T04:10:09;99532.63;;;19.41;100.00
11672;BME280;5892;43.412;24.612;2023-06-10T04:12:38;99535.88;;;19.47;100.00
11672;BME280;5892;43.412;24.612;2023-06-10T04:15:06;99529.16;;;19.51;100.00
11672;BME280;5892;43.412;24.612;2023-06-10T04:17:33;99534.72;;;19.51;100.00
11672;BME280;5892;43.412;24.612;2023-06-10T04:20:00;99508.41;;;19.38;100.00
11672;BME280;5892;43.412;24.612;2023-06-10T04:22:29;99508.09;;;19.47;100.00
11672;BME280;5892;43.412;24.612;2023-06-10T04:24:56;99524.78;;;19.50;100.00
11672;BME280;5892;43.412;24.612;2023-06-10T04:27:23;99530.38;;;19.61;100.00
11672;BME280;5892;43.412;24.612;2023-06-10T04:29:52;99533.97;;;19.61;100.00
11672;BME280;5892;43.412;24.612;2023-06-10T04:32:19;99531.19;;;19.61;100.00
11672;BME280;5892;43.412;24.612;2023-06-10T04:34:45;99530.78;;;19.63;100.00
11672;BME280;5892;43.412;24.612;2023-06-10T04:37:12;99528.44;;;19.72;100.00
11672;BME280;5892;43.412;24.612;2023-06-10T04:39:40;99537.22;;;19.84;100.00
11672;BME280;5892;43.412;24.612;2023-06-10T04:42:07;99536.91;;;20.04;100.00
11672;BME280;5892;43.412;24.612;2023-06-10T04:44:34;99540.88;;;20.03;100.00
11672;BME280;5892;43.412;24.612;2023-06-10T04:47:02;99535.75;;;20.08;100.00
11672;BME280;5892;43.412;24.612;2023-06-10T04:49:29;99537.34;;;20.13;100.00
11672;BME280;5892;43.412;24.612;2023-06-10T04:51:56;99537.38;;;20.20;100.00
11672;BME280;5892;43.412;24.612;2023-06-10T04:54:23;99541.31;;;20.26;100.00
11672;BME280;5892;43.412;24.612;2023-06-10T04:56:50;99534.63;;;20.34;100.00
11672;BME280;5892;43.412;24.612;2023-06-10T04:59:17;99506.00;;;20.34;100.00
11672;BME280;5892;43.412;24.612;2023-06-10T05:01:44;99530.28;;;20.54;100.00
11672;BME280;5892;43.412;24.612;2023-06-10T05:04:12;99539.06;;;20.67;100.00
11672;BME280;5892;43.412;24.612;2023-06-10T05:06:39;99531.09;;;20.73;100.00
11672;BME280;5892;43.412;24.612;2023-06-10T05:09:06;99541.81;;;20.95;100.00
11672;BME280;5892;43.412;24.612;2023-06-10T05:11:33;99541.84;;;20.88;100.00
11672;BME280;5892;43.412;24.612;2023-06-10T05:14:00;99547.78;;;21.01;100.00
11672;BME280;5892;43.412;24.612;2023-06-10T05:16:27;99520.75;;;20.94;99.91
11672;BME280;5892;43.412;24.612;2023-06-10T05:18:54;99537.88;;;21.14;99.28
11672;BME280;5892;43.412;24.612;2023-06-10T05:21:22;99530.28;;;20.97;99.51
11672;BME280;5892;43.412;24.612;2023-06-10T05:23:49;99532.69;;;21.02;99.75
11672;BME280;5892;43.412;24.612;2023-06-10T05:26:16;99539.47;;;21.19;98.30
11672;BME280;5892;43.412;24.612;2023-06-10T05:28:43;99521.53;;;21.16;97.38
11672;BME280;5892;43.412;24.612;2023-06-10T05:31:09;99537.84;;;21.32;97.09
11672;BME280;5892;43.412;24.612;2023-06-10T05:33:36;99542.19;;;21.36;95.62
11672;BME280;5892;43.412;24.612;2023-06-10T05:36:04;99548.16;;;21.45;95.47
11672;BME280;5892;43.412;24.612;2023-06-10T05:38:32;99542.16;;;21.58;94.55
11672;BME280;5892;43.412;24.612;2023-06-10T05:40:59;99543.72;;;21.66;92.76
11672;BME280;5892;43.412;24.612;2023-06-10T05:43:26;99550.09;;;21.63;93.18
11672;BME280;5892;43.412;24.612;2023-06-10T05:45:53;99552.06;;;21.73;92.91
11672;BME280;5892;43.412;24.612;2023-06-10T05:48:19;99546.81;;;21.89;92.33
11672;BME280;5892;43.412;24.612;2023-06-10T05:50:46;99547.22;;;21.91;92.16
11672;BME280;5892;43.412;24.612;2023-06-10T05:53:14;99545.19;;;21.98;91.09
11672;BME280;5892;43.412;24.612;2023-06-10T05:55:43;99537.25;;;21.97;90.64
11672;BME280;5892;43.412;24.612;2023-06-10T05:58:10;99544.28;;;22.19;90.52
11672;BME280;5892;43.412;24.612;2023-06-10T06:00:38;99521.94;;;22.26;88.99
11672;BME280;5892;43.412;24.612;2023-06-10T06:03:07;99547.66;;;22.59;88.57
11672;BME280;5892;43.412;24.612;2023-06-10T06:05:34;99544.78;;;22.76;88.80
11672;BME280;5892;43.412;24.612;2023-06-10T06:08:03;99539.16;;;22.80;89.29
11672;BME280;5892;43.412;24.612;2023-06-10T06:10:30;99542.56;;;22.98;88.82
11672;BME280;5892;43.412;24.612;2023-06-10T06:12:58;99544.56;;;23.01;88.79
11672;BME280;5892;43.412;24.612;2023-06-10T06:15:25;99536.63;;;22.96;88.15
11672;BME280;5892;43.412;24.612;2023-06-10T06:17:52;99534.53;;;23.04;86.47
11672;BME280;5892;43.412;24.612;2023-06-10T06:20:19;99530.28;;;23.30;86.12
11672;BME280;5892;43.412;24.612;2023-06-10T06:22:46;99540.91;;;23.49;85.25
11672;BME280;5892;43.412;24.612;2023-06-10T06:25:13;99532.38;;;23.93;83.43
11672;BME280;5892;43.412;24.612;2023-06-10T06:27:40;99527.19;;;23.92;81.63
11672;BME280;5892;43.412;24.612;2023-06-10T06:30:09;99534.56;;;24.09;81.11
11672;BME280;5892;43.412;24.612;2023-06-10T06:32:36;99535.31;;;24.13;81.70
11672;BME280;5892;43.412;24.612;2023-06-10T06:35:03;99517.28;;;23.87;81.87
11672;BME280;5892;43.412;24.612;2023-06-10T06:37:33;99535.38;;;24.10;81.25
11672;BME280;5892;43.412;24.612;2023-06-10T06:40:00;99525.50;;;24.01;81.53
11672;BME280;5892;43.412;24.612;2023-06-10T06:42:28;99530.44;;;23.90;82.60
11672;BME280;5892;43.412;24.612;2023-06-10T06:44:54;99527.50;;;23.71;83.46
11672;BME280;5892;43.412;24.612;2023-06-10T06:47:23;99530.47;;;23.53;84.28
11672;BME280;5892;43.412;24.612;2023-06-10T06:49:50;99529.88;;;23.31;85.31
11672;BME280;5892;43.412;24.612;2023-06-10T06:52:17;99527.31;;;23.51;85.22
11672;BME280;5892;43.412;24.612;2023-06-10T06:54:44;99533.66;;;23.55;85.25
11672;BME280;5892;43.412;24.612;2023-06-10T06:57:11;99502.59;;;23.46;84.61
11672;BME280;5892;43.412;24.612;2023-06-10T06:59:38;99532.16;;;23.47;84.73
11672;BME280;5892;43.412;24.612;2023-06-10T07:02:05;99520.03;;;23.57;84.62
11672;BME280;5892;43.412;24.612;2023-06-10T07:04:34;99520.97;;;23.47;84.62
11672;BME280;5892;43.412;24.612;2023-06-10T07:07:01;99506.44;;;23.59;83.26
11672;BME280;5892;43.412;24.612;2023-06-10T07:09:27;99526.94;;;23.83;82.45
11672;BME280;5892;43.412;24.612;2023-06-10T07:11:54;99492.59;;;23.45;83.96
11672;BME280;5892;43.412;24.612;2023-06-10T07:14:21;99521.00;;;23.77;83.65
11672;BME280;5892;43.412;24.612;2023-06-10T07:16:48;99518.41;;;23.93;83.80
11672;BME280;5892;43.412;24.612;2023-06-10T07:19:15;99522.88;;;23.87;84.05
11672;BME280;5892;43.412;24.612;2023-06-10T07:21:43;99508.31;;;23.99;82.99
11672;BME280;5892;43.412;24.612;2023-06-10T07:24:10;99516.25;;;24.04;83.43
11672;BME280;5892;43.412;24.612;2023-06-10T07:26:37;99524.84;;;24.21;82.13
11672;BME280;5892;43.412;24.612;2023-06-10T07:29:04;99519.53;;;24.30;82.20
11672;BME280;5892;43.412;24.612;2023-06-10T07:31:31;99524.28;;;24.60;81.12
11672;BME280;5892;43.412;24.612;2023-06-10T07:33:57;99504.88;;;24.45;80.90
11672;BME280;5892;43.412;24.612;2023-06-10T07:36:24;99518.25;;;24.34;82.59
11672;BME280;5892;43.412;24.612;2023-06-10T07:38:54;99521.91;;;24.58;81.29
11672;BME280;5892;43.412;24.612;2023-06-10T07:41:22;99527.47;;;24.85;80.32
11672;BME280;5892;43.412;24.612;2023-06-10T07:43:50;99530.13;;;24.96;80.25
11672;BME280;5892;43.412;24.612;2023-06-10T07:46:20;99521.84;;;25.12;79.53
11672;BME280;5892;43.412;24.612;2023-06-10T07:48:46;99527.25;;;25.22;78.57
11672;BME280;5892;43.412;24.612;2023-06-10T07:51:14;99516.66;;;25.53;77.25
11672;BME280;5892;43.412;24.612;2023-06-10T07:53:42;99523.06;;;25.54;77.46
11672;BME280;5892;43.412;24.612;2023-06-10T07:56:10;99528.41;;;25.68;76.62
11672;BME280;5892;43.412;24.612;2023-06-10T07:58:38;99524.88;;;25.64;76.30
11672;BME280;5892;43.412;24.612;2023-06-10T08:01:05;99537.03;;;25.77;76.13
11672;BME280;5892;43.412;24.612;2023-06-10T08:03:32;99525.28;;;26.02;74.42
11672;BME280;5892;43.412;24.612;2023-06-10T08:05:59;99527.97;;;25.89;74.72
11672;BME280;5892;43.412;24.612;2023-06-10T08:08:26;99531.13;;;26.11;73.65
11672;BME280;5892;43.412;24.612;2023-06-10T08:10:56;99521.72;;;26.17;73.62
11672;BME280;5892;43.412;24.612;2023-06-10T08:13:24;99519.72;;;26.18;73.15
11672;BME280;5892;43.412;24.612;2023-06-10T08:15:51;99520.81;;;26.24;73.00
11672;BME280;5892;43.412;24.612;2023-06-10T08:18:20;99523.09;;;26.29;72.98
11672;BME280;5892;43.412;24.612;2023-06-10T08:20:47;99511.66;;;26.20;72.72
11672;BME280;5892;43.412;24.612;2023-06-10T08:23:14;99531.53;;;26.29;72.65
11672;BME280;5892;43.412;24.612;2023-06-10T08:25:41;99531.56;;;26.45;70.94
11672;BME280;5892;43.412;24.612;2023-06-10T08:28:08;99446.47;;;25.93;70.84
11672;BME280;5892;43.412;24.612;2023-06-10T08:30:36;99523.78;;;26.53;71.48
11672;BME280;5892;43.412;24.612;2023-06-10T08:33:03;99521.56;;;26.77;70.21
11672;BME280;5892;43.412;24.612;2023-06-10T08:35:30;99517.63;;;27.07;70.03
11672;BME280;5892;43.412;24.612;2023-06-10T08:37:57;99515.25;;;27.21;69.61
11672;BME280;5892;43.412;24.612;2023-06-10T08:40:23;99523.31;;;27.64;68.21
11672;BME280;5892;43.412;24.612;2023-06-10T08:42:55;99530.78;;;27.71;67.00
11672;BME280;5892;43.412;24.612;2023-06-10T08:45:29;99522.28;;;27.58;66.94
11672;BME280;5892;43.412;24.612;2023-06-10T08:47:59;99518.66;;;27.74;65.60
11672;BME280;5892;43.412;24.612;2023-06-10T08:50:28;99526.50;;;27.66;66.08
11672;BME280;5892;43.412;24.612;2023-06-10T08:52:58;99520.06;;;27.66;66.47
11672;BME280;5892;43.412;24.612;2023-06-10T08:55:29;99521.47;;;27.74;65.89
11672;BME280;5892;43.412;24.612;2023-06-10T08:57:57;99503.91;;;27.83;65.37
11672;BME280;5892;43.412;24.612;2023-06-10T09:00:26;99499.97;;;27.93;64.24
11672;BME280;5892;43.412;24.612;2023-06-10T09:02:53;99501.28;;;27.63;64.12
11672;BME280;5892;43.412;24.612;2023-06-10T09:05:22;99510.34;;;27.83;64.46
11672;BME280;5892;43.412;24.612;2023-06-10T09:07:49;99512.03;;;27.93;64.45
11672;BME280;5892;43.412;24.612;2023-06-10T09:10:19;99499.91;;;28.21;63.31
11672;BME280;5892;43.412;24.612;2023-06-10T09:12:46;99491.03;;;28.48;63.53
11672;BME280;5892;43.412;24.612;2023-06-10T09:15:13;99488.69;;;28.47;61.94
11672;BME280;5892;43.412;24.612;2023-06-10T09:17:42;99488.91;;;28.40;61.70
11672;BME280;5892;43.412;24.612;2023-06-10T09:20:10;99497.91;;;28.60;61.09
11672;BME280;5892;43.412;24.612;2023-06-10T09:22:40;99493.97;;;28.83;60.35
11672;BME280;5892;43.412;24.612;2023-06-10T09:25:10;99491.50;;;28.72;58.61
11672;BME280;5892;43.412;24.612;2023-06-10T09:27:44;99494.41;;;28.56;60.30
11672;BME280;5892;43.412;24.612;2023-06-10T09:30:24;99486.66;;;28.73;60.92
11672;BME280;5892;43.412;24.612;2023-06-10T09:32:53;99470.94;;;28.08;62.42
11672;BME280;5892;43.412;24.612;2023-06-10T09:35:22;99479.44;;;28.21;61.48
11672;BME280;5892;43.412;24.612;2023-06-10T09:37:53;99486.84;;;28.28;62.61
11672;BME280;5892;43.412;24.612;2023-06-10T09:40:20;99484.41;;;28.30;62.57
11672;BME280;5892;43.412;24.612;2023-06-10T09:42:52;99484.16;;;28.49;62.18
11672;BME280;5892;43.412;24.612;2023-06-10T09:45:21;99479.41;;;28.59;61.28
11672;BME280;5892;43.412;24.612;2023-06-10T09:47:51;99478.06;;;28.13;60.80
11672;BME280;5892;43.412;24.612;2023-06-10T09:50:19;99461.94;;;28.39;61.56
11672;BME280;5892;43.412;24.612;2023-06-10T09:52:46;99470.97;;;28.34;61.17
11672;BME280;5892;43.412;24.612;2023-06-10T09:55:15;99472.13;;;28.36;60.38
11672;BME280;5892;43.412;24.612;2023-06-10T09:57:44;99470.94;;;28.08;62.34
11672;BME280;5892;43.412;24.612;2023-06-10T10:00:14;99467.44;;;28.04;63.42
11672;BME280;5892;43.412;24.612;2023-06-10T10:02:46;99472.81;;;27.73;64.76
11672;BME280;5892;43.412;24.612;2023-06-10T10:05:14;99467.06;;;27.77;66.11
11672;BME280;5892;43.412;24.612;2023-06-10T10:07:41;99468.25;;;27.51;65.62
11672;BME280;5892;43.412;24.612;2023-06-10T10:10:09;99461.63;;;27.57;66.63
11672;BME280;5892;43.412;24.612;2023-06-10T10:12:39;99446.22;;;27.62;62.38
11672;BME280;5892;43.412;24.612;2023-06-10T10:15:07;99448.03;;;27.81;63.36
11672;BME280;5892;43.412;24.612;2023-06-10T10:17:38;99452.47;;;27.95;61.90
11672;BME280;5892;43.412;24.612;2023-06-10T10:20:08;99453.91;;;27.74;63.05
11672;BME280;5892;43.412;24.612;2023-06-10T10:22:37;99455.03;;;27.48;63.05
11672;BME280;5892;43.412;24.612;2023-06-10T10:25:11;99454.25;;;27.47;63.55
11672;BME280;5892;43.412;24.612;2023-06-10T10:27:44;99456.38;;;27.72;62.57
11672;BME280;5892;43.412;24.612;2023-06-10T10:30:17;99448.94;;;27.91;64.19
11672;BME280;5892;43.412;24.612;2023-06-10T10:32:52;99446.59;;;28.02;62.99
11672;BME280;5892;43.412;24.612;2023-06-10T10:35:23;99412.25;;;27.94;61.83
11672;BME280;5892;43.412;24.612;2023-06-10T10:37:52;99426.81;;;28.31;59.92
11672;BME280;5892;43.412;24.612;2023-06-10T10:40:19;99443.69;;;28.43;58.22
11672;BME280;5892;43.412;24.612;2023-06-10T10:42:48;99442.34;;;28.35;55.66
11672;BME280;5892;43.412;24.612;2023-06-10T10:45:16;99433.88;;;28.48;55.47
11672;BME280;5892;43.412;24.612;2023-06-10T10:47:45;99435.22;;;28.43;57.49
11672;BME280;5892;43.412;24.612;2023-06-10T10:50:16;99432.44;;;28.18;56.01
11672;BME280;5892;43.412;24.612;2023-06-10T10:52:52;99424.66;;;28.35;55.76
11672;BME280;5892;43.412;24.612;2023-06-10T10:55:20;99421.03;;;28.21;55.44
11672;BME280;5892;43.412;24.612;2023-06-10T10:57:55;99421.28;;;28.40;53.90
11672;BME280;5892;43.412;24.612;2023-06-10T11:00:29;99420.00;;;28.53;51.15
11672;BME280;5892;43.412;24.612;2023-06-10T11:03:04;99402.34;;;28.40;53.54
11672;BME280;5892;43.412;24.612;2023-06-10T11:05:37;99412.72;;;28.31;54.54
11672;BME280;5892;43.412;24.612;2023-06-10T11:08:05;99414.25;;;28.57;51.25
11672;BME280;5892;43.412;24.612;2023-06-10T11:10:32;99407.34;;;28.71;50.23
11672;BME280;5892;43.412;24.612;2023-06-10T11:13:06;99406.47;;;28.95;48.18
11672;BME280;5892;43.412;24.612;2023-06-10T11:15:38;99405.59;;;29.20;47.36
11672;BME280;5892;43.412;24.612;2023-06-10T11:18:29;99401.13;;;28.88;47.38
11672;BME280;5892;43.412;24.612;2023-06-10T11:20:59;99395.88;;;29.21;47.63
11672;BME280;5892;43.412;24.612;2023-06-10T11:23:32;99387.63;;;29.48;46.80
11672;BME280;5892;43.412;24.612;2023-06-10T11:26:17;99390.84;;;29.60;45.96
11672;BME280;5892;43.412;24.612;2023-06-10T11:29:05;99380.41;;;29.78;46.06
11672;BME280;5892;43.412;24.612;2023-06-10T11:31:36;99361.22;;;29.64;44.73
11672;BME280;5892;43.412;24.612;2023-06-10T11:34:07;99360.53;;;29.82;43.34
11672;BME280;5892;43.412;24.612;2023-06-10T11:36:36;99361.13;;;29.77;43.55
11672;BME280;5892;43.412;24.612;2023-06-10T11:39:06;99371.00;;;29.72;42.83
11672;BME280;5892;43.412;24.612;2023-06-10T11:41:35;99364.75;;;29.46;42.85
11672;BME280;5892;43.412;24.612;2023-06-10T11:44:06;99352.44;;;29.62;43.15
11672;BME280;5892;43.412;24.612;2023-06-10T11:46:34;99351.56;;;29.83;42.19
11672;BME280;5892;43.412;24.612;2023-06-10T11:49:01;99347.00;;;30.17;42.30
11672;BME280;5892;43.412;24.612;2023-06-10T11:51:31;99345.78;;;30.36;41.42
11672;BME280;5892;43.412;24.612;2023-06-10T11:53:58;99341.44;;;30.53;40.71
11672;BME280;5892;43.412;24.612;2023-06-10T11:56:28;99336.13;;;30.64;40.71
11672;BME280;5892;43.412;24.612;2023-06-10T11:58:56;99339.88;;;30.89;40.63
11672;BME280;5892;43.412;24.612;2023-06-10T12:01:27;99340.19;;;30.72;40.71
11672;BME280;5892;43.412;24.612;2023-06-10T12:04:00;99333.16;;;30.77;40.95
11672;BME280;5892;43.412;24.612;2023-06-10T12:06:27;99329.53;;;31.04;39.01
11672;BME280;5892;43.412;24.612;2023-06-10T12:09:03;99312.53;;;31.04;38.71
11672;BME280;5892;43.412;24.612;2023-06-10T12:11:31;99323.38;;;31.24;38.97
11672;BME280;5892;43.412;24.612;2023-06-10T12:13:58;99317.78;;;31.47;37.92
11672;BME280;5892;43.412;24.612;2023-06-10T12:16:28;99322.25;;;31.30;39.18
11672;BME280;5892;43.412;24.612;2023-06-10T12:19:01;99306.69;;;31.26;38.15
11672;BME280;5892;43.412;24.612;2023-06-10T12:21:28;99332.00;;;31.20;37.71
11672;BME280;5892;43.412;24.612;2023-06-10T12:24:03;99326.03;;;31.00;37.58
11672;BME280;5892;43.412;24.612;2023-06-10T12:26:39;99325.44;;;30.68;37.92
11672;BME280;5892;43.412;24.612;2023-06-10T12:29:27;99328.81;;;30.36;38.30
11672;BME280;5892;43.412;24.612;2023-06-10T12:32:00;99327.03;;;29.93;39.77
11672;BME280;5892;43.412;24.612;2023-06-10T12:34:34;99326.09;;;29.65;39.66
11672;BME280;5892;43.412;24.612;2023-06-10T12:37:03;99336.13;;;29.14;44.27
11672;BME280;5892;43.412;24.612;2023-06-10T12:39:32;99345.06;;;28.43;47.30
11672;BME280;5892;43.412;24.612;2023-06-10T12:42:00;99362.84;;;27.39;53.11
11672;BME280;5892;43.412;24.612;2023-06-10T12:44:32;99359.13;;;26.07;59.04
11672;BME280;5892;43.412;24.612;2023-06-10T12:47:01;99405.25;;;24.48;71.78
11672;BME280;5892;43.412;24.612;2023-06-10T12:49:34;99434.41;;;21.99;85.18
11672;BME280;5892;43.412;24.612;2023-06-10T12:52:05;99385.13;;;20.81;90.20
11672;BME280;5892;43.412;24.612;2023-06-10T12:54:34;99397.88;;;20.64;100.00
11672;BME280;5892;43.412;24.612;2023-06-10T12:57:01;99406.59;;;20.13;100.00
11672;BME280;5892;43.412;24.612;2023-06-10T12:59:28;99395.44;;;19.84;100.00
11672;BME280;5892;43.412;24.612;2023-06-10T13:01:55;99375.53;;;19.54;100.00
11672;BME280;5892;43.412;24.612;2023-06-10T13:04:23;99368.00;;;19.55;100.00